sensor_id;sensor_type;location;lat;lon;timestamp;pressure;altitude;pressure_sealevel;temperature;humidity
74615;BME280;63121;51.458;-0.110;2022-10-17T00:02:21;100821.84;;;17.83;82.08
74615;BME280;63121;51.458;-0.110;2022-10-17T00:04:47;100820.13;;;17.82;82.58
74615;BME280;63121;51.458;-0.110;2022-10-17T00:07:12;100828.59;;;17.88;82.17
74615;BME280;63121;51.458;-0.110;2022-10-17T00:09:41;100835.72;;;17.83;82.42
74615;BME280;63121;51.458;-0.110;2022-10-17T00:12:06;100839.69;;;17.94;81.56
74615;BME280;63121;51.458;-0.110;2022-10-17T00:14:32;100838.78;;;17.95;82.12
74615;BME280;63121;51.458;-0.110;2022-10-17T00:16:57;100846.03;;;17.88;81.96
74615;BME280;63121;51.458;-0.110;2022-10-17T00:19:22;100842.47;;;17.89;81.45
74615;BME280;63121;51.458;-0.110;2022-10-17T00:21:48;100821.84;;;17.81;81.84
74615;BME280;63121;51.458;-0.110;2022-10-17T00:24:13;100824.38;;;17.84;81.07
74615;BME280;63121;51.458;-0.110;2022-10-17T00:26:39;100838.56;;;17.77;81.70
74615;BME280;63121;51.458;-0.110;2022-10-17T00:29:04;100848.38;;;17.71;82.03
74615;BME280;63121;51.458;-0.110;2022-10-17T00:31:29;100853.75;;;17.67;82.17
74615;BME280;63121;51.458;-0.110;2022-10-17T00:33:55;100847.59;;;17.68;81.47
74615;BME280;63121;51.458;-0.110;2022-10-17T00:36:22;100840.75;;;17.66;81.53
74615;BME280;63121;51.458;-0.110;2022-10-17T00:38:54;100849.53;;;17.63;81.56
74615;BME280;63121;51.458;-0.110;2022-10-17T00:41:23;100848.97;;;17.55;81.76
74615;BME280;63121;51.458;-0.110;2022-10-17T00:44:01;100858.91;;;17.45;82.09
74615;BME280;63121;51.458;-0.110;2022-10-17T00:46:37;100871.94;;;17.45;81.86
74615;BME280;63121;51.458;-0.110;2022-10-17T00:49:08;100879.97;;;17.41;82.02
74615;BME280;63121;51.458;-0.110;2022-10-17T00:51:41;100883.50;;;17.40;82.18
74615;BME280;63121;51.458;-0.110;2022-10-17T00:54:08;100885.00;;;17.45;81.69
74615;BME280;63121;51.458;-0.110;2022-10-17T00:56:34;100890.16;;;17.23;82.27
74615;BME280;63121;51.458;-0.110;2022-10-17T00:59:00;100884.81;;;17.26;81.60
74615;BME280;63121;51.458;-0.110;2022-10-17T01:01:26;100886.75;;;17.21;82.24
74615;BME280;63121;51.458;-0.110;2022-10-17T01:03:51;100883.47;;;17.16;82.12
74615;BME280;63121;51.458;-0.110;2022-10-17T01:06:17;100888.69;;;17.16;82.28
74615;BME280;63121;51.458;-0.110;2022-10-17T01:08:42;100897.47;;;17.14;82.13
74615;BME280;63121;51.458;-0.110;2022-10-17T01:11:19;100907.34;;;17.05;82.45
74615;BME280;63121;51.458;-0.110;2022-10-17T01:13:55;100906.25;;;17.11;82.22
74615;BME280;63121;51.458;-0.110;2022-10-17T01:16:51;100910.41;;;17.17;82.36
74615;BME280;63121;51.458;-0.110;2022-10-17T01:22:12;100910.66;;;17.09;82.26
74615;BME280;63121;51.458;-0.110;2022-10-17T01:27:47;100904.63;;;17.09;82.23
74615;BME280;63121;51.458;-0.110;2022-10-17T01:30:25;100906.03;;;17.17;81.85
74615;BME280;63121;51.458;-0.110;2022-10-17T01:35:38;100908.06;;;17.09;81.78
74615;BME280;63121;51.458;-0.110;2022-10-17T01:38:29;100914.38;;;17.03;81.55
74615;BME280;63121;51.458;-0.110;2022-10-17T01:41:13;100934.28;;;17.06;81.96
74615;BME280;63121;51.458;-0.110;2022-10-17T01:43:49;100921.28;;;17.04;81.70
74615;BME280;63121;51.458;-0.110;2022-10-17T01:46:22;100927.50;;;17.00;81.64
74615;BME280;63121;51.458;-0.110;2022-10-17T01:48:48;100943.91;;;17.04;81.31
74615;BME280;63121;51.458;-0.110;2022-10-17T01:53:48;100944.59;;;17.09;81.71
74615;BME280;63121;51.458;-0.110;2022-10-17T01:56:16;100943.47;;;17.16;81.43
74615;BME280;63121;51.458;-0.110;2022-10-17T01:58:46;100953.97;;;17.15;81.53
74615;BME280;63121;51.458;-0.110;2022-10-17T02:01:14;100960.44;;;17.03;81.55
74615;BME280;63121;51.458;-0.110;2022-10-17T02:03:42;100964.84;;;17.01;81.82
74615;BME280;63121;51.458;-0.110;2022-10-17T02:06:09;100961.41;;;17.00;81.45
74615;BME280;63121;51.458;-0.110;2022-10-17T02:08:44;100982.22;;;17.02;81.75
74615;BME280;63121;51.458;-0.110;2022-10-17T02:11:22;100975.19;;;17.04;81.29
74615;BME280;63121;51.458;-0.110;2022-10-17T02:16:37;100970.66;;;17.09;81.55
74615;BME280;63121;51.458;-0.110;2022-10-17T02:22:01;100976.09;;;17.03;82.02
74615;BME280;63121;51.458;-0.110;2022-10-17T02:30:30;100985.59;;;17.05;81.75
74615;BME280;63121;51.458;-0.110;2022-10-17T02:33:11;100987.22;;;17.08;81.46
74615;BME280;63121;51.458;-0.110;2022-10-17T02:35:42;101007.38;;;17.03;81.47
74615;BME280;63121;51.458;-0.110;2022-10-17T02:38:11;100999.28;;;17.12;81.41
74615;BME280;63121;51.458;-0.110;2022-10-17T02:40:39;101004.78;;;17.03;81.12
74615;BME280;63121;51.458;-0.110;2022-10-17T02:43:05;100996.34;;;17.21;80.55
74615;BME280;63121;51.458;-0.110;2022-10-17T02:45:31;101005.09;;;17.20;80.65
74615;BME280;63121;51.458;-0.110;2022-10-17T02:48:06;100999.94;;;17.17;80.37
74615;BME280;63121;51.458;-0.110;2022-10-17T02:51:06;100981.00;;;17.12;81.05
74615;BME280;63121;51.458;-0.110;2022-10-17T02:54:19;100960.06;;;17.14;80.90
74615;BME280;63121;51.458;-0.110;2022-10-17T02:56:58;100962.16;;;17.04;81.00
74615;BME280;63121;51.458;-0.110;2022-10-17T02:59:26;100950.38;;;17.17;80.71
74615;BME280;63121;51.458;-0.110;2022-10-17T03:01:53;100966.78;;;17.21;80.51
74615;BME280;63121;51.458;-0.110;2022-10-17T03:04:19;100978.88;;;17.23;80.27
74615;BME280;63121;51.458;-0.110;2022-10-17T03:06:46;100971.84;;;17.25;80.49
74615;BME280;63121;51.458;-0.110;2022-10-17T03:09:12;100961.53;;;17.22;80.64
74615;BME280;63121;51.458;-0.110;2022-10-17T03:11:38;100964.13;;;17.22;80.03
74615;BME280;63121;51.458;-0.110;2022-10-17T03:14:03;100981.72;;;17.16;80.37
74615;BME280;63121;51.458;-0.110;2022-10-17T03:16:29;100976.59;;;17.14;80.20
74615;BME280;63121;51.458;-0.110;2022-10-17T03:18:55;100982.91;;;17.07;80.30
74615;BME280;63121;51.458;-0.110;2022-10-17T03:21:20;100976.97;;;17.03;80.31
74615;BME280;63121;51.458;-0.110;2022-10-17T03:23:45;100980.50;;;17.01;80.37
74615;BME280;63121;51.458;-0.110;2022-10-17T03:26:11;100982.09;;;17.05;80.44
74615;BME280;63121;51.458;-0.110;2022-10-17T03:28:37;100964.41;;;17.15;80.05
74615;BME280;63121;51.458;-0.110;2022-10-17T03:31:10;100973.97;;;17.14;79.78
74615;BME280;63121;51.458;-0.110;2022-10-17T03:33:36;100959.94;;;17.18;79.92
74615;BME280;63121;51.458;-0.110;2022-10-17T03:36:09;100958.97;;;17.21;79.71
74615;BME280;63121;51.458;-0.110;2022-10-17T03:38:36;100972.19;;;17.16;80.27
74615;BME280;63121;51.458;-0.110;2022-10-17T03:41:02;100981.69;;;17.17;79.61
74615;BME280;63121;51.458;-0.110;2022-10-17T03:43:28;100982.81;;;17.10;79.83
74615;BME280;63121;51.458;-0.110;2022-10-17T03:45:55;100989.34;;;17.22;79.77
74615;BME280;63121;51.458;-0.110;2022-10-17T03:48:21;100999.75;;;17.23;79.96
74615;BME280;63121;51.458;-0.110;2022-10-17T03:50:47;100999.88;;;17.20;80.05
74615;BME280;63121;51.458;-0.110;2022-10-17T03:53:12;100997.13;;;17.23;79.47
74615;BME280;63121;51.458;-0.110;2022-10-17T03:55:37;100995.50;;;17.21;80.07
74615;BME280;63121;51.458;-0.110;2022-10-17T03:58:03;100995.91;;;17.34;79.34
74615;BME280;63121;51.458;-0.110;2022-10-17T04:00:28;100998.41;;;17.37;79.22
74615;BME280;63121;51.458;-0.110;2022-10-17T04:02:53;100998.63;;;17.31;79.75
74615;BME280;63121;51.458;-0.110;2022-10-17T04:05:19;100993.97;;;17.39;79.67
74615;BME280;63121;51.458;-0.110;2022-10-17T04:07:44;100999.31;;;17.36;79.27
74615;BME280;63121;51.458;-0.110;2022-10-17T04:10:10;100990.50;;;17.40;79.65
74615;BME280;63121;51.458;-0.110;2022-10-17T04:12:35;100992.38;;;17.35;79.79
74615;BME280;63121;51.458;-0.110;2022-10-17T04:15:00;100976.84;;;17.32;79.32
74615;BME280;63121;51.458;-0.110;2022-10-17T04:17:26;100997.09;;;17.25;79.75
74615;BME280;63121;51.458;-0.110;2022-10-17T04:19:51;101002.41;;;17.22;79.43
74615;BME280;63121;51.458;-0.110;2022-10-17T04:22:16;101007.19;;;17.34;79.44
74615;BME280;63121;51.458;-0.110;2022-10-17T04:24:42;101006.53;;;17.29;79.48
74615;BME280;63121;51.458;-0.110;2022-10-17T04:27:07;101009.06;;;17.31;78.91
74615;BME280;63121;51.458;-0.110;2022-10-17T04:29:32;101017.97;;;17.25;79.38
74615;BME280;63121;51.458;-0.110;2022-10-17T04:31:58;101016.06;;;17.28;78.90
74615;BME280;63121;51.458;-0.110;2022-10-17T04:34:23;101010.38;;;17.17;78.98
74615;BME280;63121;51.458;-0.110;2022-10-17T04:36:48;100996.25;;;17.24;79.37
74615;BME280;63121;51.458;-0.110;2022-10-17T04:39:16;100997.09;;;17.25;79.12
74615;BME280;63121;51.458;-0.110;2022-10-17T04:41:41;101003.09;;;17.27;79.61
74615;BME280;63121;51.458;-0.110;2022-10-17T04:44:06;101005.50;;;17.33;79.48
74615;BME280;63121;51.458;-0.110;2022-10-17T04:46:32;101016.78;;;17.34;79.71
74615;BME280;63121;51.458;-0.110;2022-10-17T04:48:58;101021.09;;;17.35;79.78
74615;BME280;63121;51.458;-0.110;2022-10-17T04:51:23;101034.13;;;17.35;79.60
74615;BME280;63121;51.458;-0.110;2022-10-17T04:53:48;101045.66;;;17.29;79.66
74615;BME280;63121;51.458;-0.110;2022-10-17T04:56:19;101044.69;;;17.32;79.45
74615;BME280;63121;51.458;-0.110;2022-10-17T04:58:46;101039.47;;;17.32;79.89
74615;BME280;63121;51.458;-0.110;2022-10-17T05:01:14;101036.94;;;17.28;79.80
74615;BME280;63121;51.458;-0.110;2022-10-17T05:03:40;101043.03;;;17.29;79.61
74615;BME280;63121;51.458;-0.110;2022-10-17T05:06:10;101045.00;;;17.22;79.46
74615;BME280;63121;51.458;-0.110;2022-10-17T05:08:36;101041.28;;;17.30;79.66
74615;BME280;63121;51.458;-0.110;2022-10-17T05:11:02;101044.94;;;17.24;79.67
74615;BME280;63121;51.458;-0.110;2022-10-17T05:13:28;101071.09;;;17.22;79.68
74615;BME280;63121;51.458;-0.110;2022-10-17T05:15:58;101076.09;;;17.28;79.67
74615;BME280;63121;51.458;-0.110;2022-10-17T05:18:23;101077.25;;;17.20;79.13
74615;BME280;63121;51.458;-0.110;2022-10-17T05:20:49;101091.28;;;17.16;79.74
74615;BME280;63121;51.458;-0.110;2022-10-17T05:23:14;101088.56;;;17.20;79.28
74615;BME280;63121;51.458;-0.110;2022-10-17T05:25:39;101110.16;;;17.24;79.50
74615;BME280;63121;51.458;-0.110;2022-10-17T05:28:05;101124.00;;;17.26;78.94
74615;BME280;63121;51.458;-0.110;2022-10-17T05:30:30;101129.22;;;17.26;79.36
74615;BME280;63121;51.458;-0.110;2022-10-17T05:32:55;101133.50;;;17.28;79.82
74615;BME280;63121;51.458;-0.110;2022-10-17T05:35:21;101136.19;;;17.27;80.33
74615;BME280;63121;51.458;-0.110;2022-10-17T05:37:47;101135.53;;;17.20;80.75
74615;BME280;63121;51.458;-0.110;2022-10-17T05:40:12;101130.19;;;17.23;81.13
74615;BME280;63121;51.458;-0.110;2022-10-17T05:42:38;101136.56;;;17.15;80.74
74615;BME280;63121;51.458;-0.110;2022-10-17T05:45:04;101140.47;;;17.01;81.95
74615;BME280;63121;51.458;-0.110;2022-10-17T05:47:29;101142.94;;;17.06;81.94
74615;BME280;63121;51.458;-0.110;2022-10-17T05:49:55;101141.28;;;17.03;82.36
74615;BME280;63121;51.458;-0.110;2022-10-17T05:52:20;101148.06;;;16.78;82.71
74615;BME280;63121;51.458;-0.110;2022-10-17T05:54:46;101157.63;;;16.80;82.55
74615;BME280;63121;51.458;-0.110;2022-10-17T05:57:11;101162.44;;;16.93;82.96
74615;BME280;63121;51.458;-0.110;2022-10-17T05:59:36;101157.78;;;16.74;82.77
74615;BME280;63121;51.458;-0.110;2022-10-17T06:02:02;101174.22;;;16.76;82.83
74615;BME280;63121;51.458;-0.110;2022-10-17T06:04:27;101171.13;;;16.63;83.37
74615;BME280;63121;51.458;-0.110;2022-10-17T06:06:52;101178.69;;;16.71;83.24
74615;BME280;63121;51.458;-0.110;2022-10-17T06:09:18;101161.75;;;16.56;82.77
74615;BME280;63121;51.458;-0.110;2022-10-17T06:11:43;101168.72;;;16.56;83.01
74615;BME280;63121;51.458;-0.110;2022-10-17T06:14:09;101183.44;;;16.57;83.37
74615;BME280;63121;51.458;-0.110;2022-10-17T06:16:34;101191.19;;;16.60;83.02
74615;BME280;63121;51.458;-0.110;2022-10-17T06:18:59;101195.28;;;16.69;83.15
74615;BME280;63121;51.458;-0.110;2022-10-17T06:21:26;101187.56;;;16.65;83.66
74615;BME280;63121;51.458;-0.110;2022-10-17T06:23:52;101191.88;;;16.66;83.50
74615;BME280;63121;51.458;-0.110;2022-10-17T06:26:18;101196.28;;;16.64;83.72
74615;BME280;63121;51.458;-0.110;2022-10-17T06:28:44;101202.16;;;16.71;83.66
74615;BME280;63121;51.458;-0.110;2022-10-17T06:31:12;101205.69;;;16.70;83.67
74615;BME280;63121;51.458;-0.110;2022-10-17T06:33:38;101222.31;;;16.66;83.78
74615;BME280;63121;51.458;-0.110;2022-10-17T06:36:05;101216.34;;;16.61;83.12
74615;BME280;63121;51.458;-0.110;2022-10-17T06:38:31;101222.53;;;16.57;82.84
74615;BME280;63121;51.458;-0.110;2022-10-17T06:41:13;101230.34;;;16.58;82.55
74615;BME280;63121;51.458;-0.110;2022-10-17T06:43:43;101228.81;;;16.51;82.54
74615;BME280;63121;51.458;-0.110;2022-10-17T06:46:16;101227.94;;;16.51;82.58
74615;BME280;63121;51.458;-0.110;2022-10-17T06:48:42;101227.00;;;16.53;81.92
74615;BME280;63121;51.458;-0.110;2022-10-17T06:51:08;101235.84;;;16.48;82.23
74615;BME280;63121;51.458;-0.110;2022-10-17T06:53:36;101248.06;;;16.45;82.21
74615;BME280;63121;51.458;-0.110;2022-10-17T06:56:03;101255.84;;;16.47;82.07
74615;BME280;63121;51.458;-0.110;2022-10-17T06:58:31;101266.25;;;16.47;82.15
74615;BME280;63121;51.458;-0.110;2022-10-17T07:01:01;101262.84;;;16.45;82.01
74615;BME280;63121;51.458;-0.110;2022-10-17T07:03:27;101263.50;;;16.53;81.37
74615;BME280;63121;51.458;-0.110;2022-10-17T07:05:53;101256.50;;;16.55;81.72
74615;BME280;63121;51.458;-0.110;2022-10-17T07:08:19;101267.72;;;16.57;81.62
74615;BME280;63121;51.458;-0.110;2022-10-17T07:10:56;101283.44;;;16.54;81.50
74615;BME280;63121;51.458;-0.110;2022-10-17T07:13:21;101285.91;;;16.59;80.71
74615;BME280;63121;51.458;-0.110;2022-10-17T07:15:47;101290.28;;;16.58;80.32
74615;BME280;63121;51.458;-0.110;2022-10-17T07:18:12;101286.69;;;16.62;80.73
74615;BME280;63121;51.458;-0.110;2022-10-17T07:20:38;101297.94;;;16.64;80.46
74615;BME280;63121;51.458;-0.110;2022-10-17T07:23:04;101305.59;;;16.71;80.43
74615;BME280;63121;51.458;-0.110;2022-10-17T07:25:30;101309.06;;;16.70;80.38
74615;BME280;63121;51.458;-0.110;2022-10-17T07:27:55;101329.22;;;16.64;80.40
74615;BME280;63121;51.458;-0.110;2022-10-17T07:30:21;101338.94;;;16.58;80.33
74615;BME280;63121;51.458;-0.110;2022-10-17T07:32:47;101355.91;;;16.74;80.19
74615;BME280;63121;51.458;-0.110;2022-10-17T07:35:12;101352.72;;;16.63;80.68
74615;BME280;63121;51.458;-0.110;2022-10-17T07:37:38;101352.72;;;16.63;79.91
74615;BME280;63121;51.458;-0.110;2022-10-17T07:40:05;101363.22;;;16.60;79.86
74615;BME280;63121;51.458;-0.110;2022-10-17T07:42:37;101376.91;;;16.68;79.90
74615;BME280;63121;51.458;-0.110;2022-10-17T07:45:03;101378.31;;;16.83;79.61
74615;BME280;63121;51.458;-0.110;2022-10-17T07:47:29;101394.03;;;16.78;79.03
74615;BME280;63121;51.458;-0.110;2022-10-17T07:49:56;101382.69;;;16.81;79.11
74615;BME280;63121;51.458;-0.110;2022-10-17T07:52:22;101389.09;;;17.02;78.46
74615;BME280;63121;51.458;-0.110;2022-10-17T07:54:47;101392.81;;;16.93;78.36
74615;BME280;63121;51.458;-0.110;2022-10-17T07:57:12;101398.63;;;17.03;78.54
74615;BME280;63121;51.458;-0.110;2022-10-17T07:59:38;101392.28;;;17.12;78.30
74615;BME280;63121;51.458;-0.110;2022-10-17T08:02:04;101390.56;;;17.12;78.09
74615;BME280;63121;51.458;-0.110;2022-10-17T08:04:29;101394.06;;;17.11;78.03
74615;BME280;63121;51.458;-0.110;2022-10-17T08:06:55;101395.50;;;17.21;77.34
74615;BME280;63121;51.458;-0.110;2022-10-17T08:09:20;101407.56;;;17.25;77.19
74615;BME280;63121;51.458;-0.110;2022-10-17T08:11:46;101416.84;;;17.36;76.62
74615;BME280;63121;51.458;-0.110;2022-10-17T08:14:12;101426.66;;;17.27;76.89
74615;BME280;63121;51.458;-0.110;2022-10-17T08:16:39;101422.16;;;17.33;76.65
74615;BME280;63121;51.458;-0.110;2022-10-17T08:19:04;101431.22;;;17.51;75.47
74615;BME280;63121;51.458;-0.110;2022-10-17T08:21:30;101421.09;;;17.70;75.36
74615;BME280;63121;51.458;-0.110;2022-10-17T08:23:56;101442.28;;;17.60;75.10
74615;BME280;63121;51.458;-0.110;2022-10-17T08:26:21;101453.59;;;17.59;75.05
74615;BME280;63121;51.458;-0.110;2022-10-17T08:28:47;101447.94;;;17.75;74.41
74615;BME280;63121;51.458;-0.110;2022-10-17T08:31:18;101464.84;;;17.93;74.18
74615;BME280;63121;51.458;-0.110;2022-10-17T08:33:44;101464.00;;;17.92;73.80
74615;BME280;63121;51.458;-0.110;2022-10-17T08:36:12;101465.88;;;17.87;73.61
74615;BME280;63121;51.458;-0.110;2022-10-17T08:38:38;101467.94;;;17.76;74.83
74615;BME280;63121;51.458;-0.110;2022-10-17T08:44:24;101474.72;;;17.81;73.64
74615;BME280;63121;51.458;-0.110;2022-10-17T08:46:57;101489.25;;;17.92;73.69
74615;BME280;63121;51.458;-0.110;2022-10-17T08:49:36;101480.03;;;18.10;72.57
74615;BME280;63121;51.458;-0.110;2022-10-17T08:52:15;101495.03;;;18.03;73.20
74615;BME280;63121;51.458;-0.110;2022-10-17T08:54:44;101503.53;;;18.10;73.47
74615;BME280;63121;51.458;-0.110;2022-10-17T08:57:16;101493.06;;;18.11;73.12
74615;BME280;63121;51.458;-0.110;2022-10-17T08:59:42;101509.13;;;17.97;73.05
74615;BME280;63121;51.458;-0.110;2022-10-17T09:02:36;101511.09;;;18.19;72.93
74615;BME280;63121;51.458;-0.110;2022-10-17T09:10:54;101509.84;;;18.59;71.40
74615;BME280;63121;51.458;-0.110;2022-10-17T09:13:47;101516.84;;;18.58;71.20
74615;BME280;63121;51.458;-0.110;2022-10-17T09:19:11;101535.22;;;18.28;71.20
74615;BME280;63121;51.458;-0.110;2022-10-17T09:22:09;101537.97;;;18.24;71.59
74615;BME280;63121;51.458;-0.110;2022-10-17T09:27:02;101550.97;;;18.55;70.86
74615;BME280;63121;51.458;-0.110;2022-10-17T09:29:28;101544.47;;;18.39;71.26
74615;BME280;63121;51.458;-0.110;2022-10-17T09:32:00;101554.34;;;18.29;70.95
74615;BME280;63121;51.458;-0.110;2022-10-17T09:34:29;101543.59;;;18.38;71.14
74615;BME280;63121;51.458;-0.110;2022-10-17T09:36:57;101554.53;;;17.93;72.16
74615;BME280;63121;51.458;-0.110;2022-10-17T09:39:24;101555.13;;;18.03;72.11
74615;BME280;63121;51.458;-0.110;2022-10-17T09:41:58;101552.31;;;17.78;72.06
74615;BME280;63121;51.458;-0.110;2022-10-17T09:44:24;101553.13;;;17.80;72.25
74615;BME280;63121;51.458;-0.110;2022-10-17T09:49:38;101562.97;;;18.33;71.02
74615;BME280;63121;51.458;-0.110;2022-10-17T09:52:08;101576.41;;;18.19;71.16
74615;BME280;63121;51.458;-0.110;2022-10-17T09:54:47;101574.81;;;18.15;70.32
74615;BME280;63121;51.458;-0.110;2022-10-17T09:57:14;101591.09;;;17.93;70.80
74615;BME280;63121;51.458;-0.110;2022-10-17T09:59:44;101595.16;;;17.71;70.39
74615;BME280;63121;51.458;-0.110;2022-10-17T10:02:23;101595.81;;;17.79;70.45
74615;BME280;63121;51.458;-0.110;2022-10-17T10:04:59;101596.50;;;17.85;70.19
74615;BME280;63121;51.458;-0.110;2022-10-17T10:07:27;101614.00;;;18.15;69.17
74615;BME280;63121;51.458;-0.110;2022-10-17T10:09:53;101618.06;;;18.25;69.11
74615;BME280;63121;51.458;-0.110;2022-10-17T10:12:21;101626.38;;;18.39;68.61
74615;BME280;63121;51.458;-0.110;2022-10-17T10:14:48;101628.16;;;18.37;68.30
74615;BME280;63121;51.458;-0.110;2022-10-17T10:17:34;101634.19;;;18.10;68.17
74615;BME280;63121;51.458;-0.110;2022-10-17T10:20:00;101646.00;;;18.23;67.61
74615;BME280;63121;51.458;-0.110;2022-10-17T10:22:26;101639.16;;;18.48;66.94
74615;BME280;63121;51.458;-0.110;2022-10-17T10:25:14;101640.38;;;18.37;67.32
74615;BME280;63121;51.458;-0.110;2022-10-17T10:27:42;101654.13;;;18.43;67.70
74615;BME280;63121;51.458;-0.110;2022-10-17T10:30:17;101660.19;;;18.75;66.16
74615;BME280;63121;51.458;-0.110;2022-10-17T10:32:46;101648.31;;;18.63;64.83
74615;BME280;63121;51.458;-0.110;2022-10-17T10:35:29;101651.81;;;18.64;64.54
74615;BME280;63121;51.458;-0.110;2022-10-17T10:37:57;101651.84;;;18.62;64.07
74615;BME280;63121;51.458;-0.110;2022-10-17T10:40:37;101669.03;;;18.99;63.84
74615;BME280;63121;51.458;-0.110;2022-10-17T10:43:04;101680.94;;;19.09;63.32
74615;BME280;63121;51.458;-0.110;2022-10-17T10:56:57;101685.88;;;18.91;62.55
74615;BME280;63121;51.458;-0.110;2022-10-17T10:59:16;101696.84;;;19.03;62.66
74615;BME280;63121;51.458;-0.110;2022-10-17T11:07:15;101705.28;;;18.85;61.17
74615;BME280;63121;51.458;-0.110;2022-10-17T11:09:50;101714.41;;;18.70;60.27
74615;BME280;63121;51.458;-0.110;2022-10-17T11:12:21;101714.31;;;19.03;61.02
74615;BME280;63121;51.458;-0.110;2022-10-17T11:14:56;101723.78;;;19.07;60.02
74615;BME280;63121;51.458;-0.110;2022-10-17T11:17:38;101729.34;;;19.53;59.98
74615;BME280;63121;51.458;-0.110;2022-10-17T11:22:54;101733.63;;;19.55;60.09
74615;BME280;63121;51.458;-0.110;2022-10-17T11:25:34;101735.84;;;19.67;58.49
74615;BME280;63121;51.458;-0.110;2022-10-17T11:28:01;101733.09;;;19.72;58.49
74615;BME280;63121;51.458;-0.110;2022-10-17T11:30:33;101745.56;;;19.64;59.02
74615;BME280;63121;51.458;-0.110;2022-10-17T11:33:03;101742.41;;;19.81;58.59
74615;BME280;63121;51.458;-0.110;2022-10-17T11:35:39;101750.34;;;20.29;58.56
74615;BME280;63121;51.458;-0.110;2022-10-17T11:38:29;101755.09;;;20.20;57.71
74615;BME280;63121;51.458;-0.110;2022-10-17T11:40:59;101755.16;;;20.17;57.87
74615;BME280;63121;51.458;-0.110;2022-10-17T11:43:32;101755.28;;;20.14;56.75
74615;BME280;63121;51.458;-0.110;2022-10-17T11:46:03;101767.16;;;19.99;56.86
74615;BME280;63121;51.458;-0.110;2022-10-17T11:48:43;101770.72;;;19.69;56.15
74615;BME280;63121;51.458;-0.110;2022-10-17T11:51:11;101765.84;;;19.85;56.54
74615;BME280;63121;51.458;-0.110;2022-10-17T11:53:48;101773.00;;;19.80;57.14
74615;BME280;63121;51.458;-0.110;2022-10-17T11:56:19;101778.78;;;19.90;57.09
74615;BME280;63121;51.458;-0.110;2022-10-17T11:58:54;101775.88;;;19.73;56.00
74615;BME280;63121;51.458;-0.110;2022-10-17T12:01:36;101778.81;;;19.34;55.53
74615;BME280;63121;51.458;-0.110;2022-10-17T12:05:08;101775.94;;;19.41;56.33
74615;BME280;63121;51.458;-0.110;2022-10-17T12:07:44;101781.19;;;19.41;55.82
74615;BME280;63121;51.458;-0.110;2022-10-17T12:10:21;101772.28;;;18.89;56.88
74615;BME280;63121;51.458;-0.110;2022-10-17T12:12:48;101781.50;;;19.02;56.93
74615;BME280;63121;51.458;-0.110;2022-10-17T12:17:55;101781.97;;;19.15;56.01
74615;BME280;63121;51.458;-0.110;2022-10-17T12:22:54;101776.09;;;19.37;55.95
74615;BME280;63121;51.458;-0.110;2022-10-17T12:25:22;101784.25;;;19.84;54.32
74615;BME280;63121;51.458;-0.110;2022-10-17T12:27:49;101788.16;;;19.70;54.49
74615;BME280;63121;51.458;-0.110;2022-10-17T12:30:24;101786.00;;;19.83;54.39
74615;BME280;63121;51.458;-0.110;2022-10-17T12:35:37;101793.38;;;19.70;53.94
74615;BME280;63121;51.458;-0.110;2022-10-17T12:45:50;101799.28;;;19.49;52.81
74615;BME280;63121;51.458;-0.110;2022-10-17T12:51:22;101801.22;;;19.72;52.11
74615;BME280;63121;51.458;-0.110;2022-10-17T12:56:30;101808.00;;;20.04;51.71
74615;BME280;63121;51.458;-0.110;2022-10-17T12:58:57;101803.41;;;19.86;52.31
74615;BME280;63121;51.458;-0.110;2022-10-17T13:01:28;101799.88;;;19.59;51.78
74615;BME280;63121;51.458;-0.110;2022-10-17T13:03:55;101799.06;;;19.57;52.57
74615;BME280;63121;51.458;-0.110;2022-10-17T13:06:27;101807.72;;;19.59;52.42
74615;BME280;63121;51.458;-0.110;2022-10-17T13:09:00;101793.69;;;19.88;51.63
74615;BME280;63121;51.458;-0.110;2022-10-17T13:11:28;101814.06;;;19.80;51.38
74615;BME280;63121;51.458;-0.110;2022-10-17T13:13:57;101806.94;;;19.83;51.57
74615;BME280;63121;51.458;-0.110;2022-10-17T13:16:37;101820.63;;;19.93;51.99
74615;BME280;63121;51.458;-0.110;2022-10-17T13:19:30;101816.13;;;20.23;50.62
74615;BME280;63121;51.458;-0.110;2022-10-17T13:22:19;101820.91;;;20.10;51.30
74615;BME280;63121;51.458;-0.110;2022-10-17T13:24:46;101819.16;;;20.36;51.51
74615;BME280;63121;51.458;-0.110;2022-10-17T13:27:25;101828.94;;;20.33;50.85
74615;BME280;63121;51.458;-0.110;2022-10-17T13:29:51;101830.09;;;19.97;50.78
74615;BME280;63121;51.458;-0.110;2022-10-17T13:32:17;101829.09;;;19.73;51.52
74615;BME280;63121;51.458;-0.110;2022-10-17T13:34:42;101826.13;;;19.56;51.31
74615;BME280;63121;51.458;-0.110;2022-10-17T13:37:11;101826.44;;;20.03;51.08
74615;BME280;63121;51.458;-0.110;2022-10-17T13:39:43;101819.50;;;20.00;50.73
74615;BME280;63121;51.458;-0.110;2022-10-17T13:42:23;101824.25;;;19.89;50.81
74615;BME280;63121;51.458;-0.110;2022-10-17T13:44:50;101821.72;;;20.13;50.35
74615;BME280;63121;51.458;-0.110;2022-10-17T13:47:32;101827.00;;;20.38;50.18
74615;BME280;63121;51.458;-0.110;2022-10-17T13:50:00;101829.81;;;20.58;49.09
74615;BME280;63121;51.458;-0.110;2022-10-17T13:52:27;101830.09;;;20.49;48.70
74615;BME280;63121;51.458;-0.110;2022-10-17T13:54:54;101836.66;;;21.11;47.93
74615;BME280;63121;51.458;-0.110;2022-10-17T13:57:28;101833.09;;;20.88;46.43
74615;BME280;63121;51.458;-0.110;2022-10-17T13:59:56;101839.78;;;20.97;47.53
74615;BME280;63121;51.458;-0.110;2022-10-17T14:02:28;101832.94;;;21.17;46.67
74615;BME280;63121;51.458;-0.110;2022-10-17T14:05:11;101827.34;;;21.26;46.36
74615;BME280;63121;51.458;-0.110;2022-10-17T14:07:42;101834.13;;;20.84;46.76
74615;BME280;63121;51.458;-0.110;2022-10-17T14:10:20;101837.00;;;21.93;43.81
74615;BME280;63121;51.458;-0.110;2022-10-17T14:12:46;101848.84;;;21.81;43.29
74615;BME280;63121;51.458;-0.110;2022-10-17T14:15:15;101849.03;;;21.77;43.65